sensor_id;sensor_type;location;lat;lon;timestamp;noise_LAeq;noise_LA_min;noise_LA_max;noise_LA01;noise_LA95
68599;Laerm;18038;50.166;18.908;2022-09-23T00:01:10;34.50;33.32;35.71;;
68599;Laerm;18038;50.166;18.908;2022-09-23T00:04:17;34.52;33.44;35.69;;
68599;Laerm;18038;50.166;18.908;2022-09-23T00:07:23;34.51;33.03;35.95;;
68599;Laerm;18038;50.166;18.908;2022-09-23T00:10:35;34.56;33.31;37.98;;
68599;Laerm;18038;50.166;18.908;2022-09-23T00:13:46;34.49;33.46;35.67;;
68599;Laerm;18038;50.166;18.908;2022-09-23T00:16:52;34.55;33.26;36.48;;
68599;Laerm;18038;50.166;18.908;2022-09-23T00:19:58;34.52;33.37;36.08;;
68599;Laerm;18038;50.166;18.908;2022-09-23T00:23:04;34.54;33.29;36.14;;
68599;Laerm;18038;50.166;18.908;2022-09-23T00:26:17;34.54;33.48;35.88;;
68599;Laerm;18038;50.166;18.908;2022-09-23T00:29:26;34.66;33.44;36.43;;
68599;Laerm;18038;50.166;18.908;2022-09-23T00:32:35;34.51;33.31;35.65;;
68599;Laerm;18038;50.166;18.908;2022-09-23T00:35:42;34.51;33.23;35.82;;
68599;Laerm;18038;50.166;18.908;2022-09-23T00:38:57;35.21;33.41;46.33;;
68599;Laerm;18038;50.166;18.908;2022-09-23T00:42:14;36.08;33.44;47.60;;
68599;Laerm;18038;50.166;18.908;2022-09-23T00:45:22;34.65;33.54;37.25;;
68599;Laerm;18038;50.166;18.908;2022-09-23T00:48:28;34.67;33.35;36.47;;
68599;Laerm;18038;50.166;18.908;2022-09-23T00:51:42;34.50;33.21;35.49;;
68599;Laerm;18038;50.166;18.908;2022-09-23T00:54:56;34.65;33.36;40.41;;
68599;Laerm;18038;50.166;18.908;2022-09-23T00:58:11;34.54;33.42;37.31;;
68599;Laerm;18038;50.166;18.908;2022-09-23T01:01:20;35.04;33.53;39.94;;
68599;Laerm;18038;50.166;18.908;2022-09-23T01:04:29;35.31;33.54;47.57;;
68599;Laerm;18038;50.166;18.908;2022-09-23T01:07:35;34.61;33.33;37.19;;
68599;Laerm;18038;50.166;18.908;2022-09-23T01:10:58;36.31;33.50;48.50;;
68599;Laerm;18038;50.166;18.908;2022-09-23T01:14:33;35.25;33.44;44.88;;
68599;Laerm;18038;50.166;18.908;2022-09-23T01:17:57;35.04;33.30;45.49;;
68599;Laerm;18038;50.166;18.908;2022-09-23T01:21:23;35.01;33.44;44.66;;
68599;Laerm;18038;50.166;18.908;2022-09-23T01:25:03;34.84;33.41;44.77;;
68599;Laerm;18038;50.166;18.908;2022-09-23T01:28:45;34.49;33.30;35.55;;
68599;Laerm;18038;50.166;18.908;2022-09-23T01:32:11;35.35;33.40;47.70;;
68599;Laerm;18038;50.166;18.908;2022-09-23T01:35:28;34.93;33.51;42.85;;
68599;Laerm;18038;50.166;18.908;2022-09-23T01:38:48;37.80;33.49;55.82;;
68599;Laerm;18038;50.166;18.908;2022-09-23T01:42:14;34.64;33.44;37.52;;
68599;Laerm;18038;50.166;18.908;2022-09-23T01:45:36;34.57;33.39;36.90;;
68599;Laerm;18038;50.166;18.908;2022-09-23T01:48:56;35.05;33.50;44.28;;
68599;Laerm;18038;50.166;18.908;2022-09-23T01:52:13;34.57;33.17;36.33;;
68599;Laerm;18038;50.166;18.908;2022-09-23T01:55:29;35.09;33.21;46.18;;
68599;Laerm;18038;50.166;18.908;2022-09-23T01:58:45;34.64;33.37;36.74;;
68599;Laerm;18038;50.166;18.908;2022-09-23T02:01:59;35.05;33.54;42.48;;
68599;Laerm;18038;50.166;18.908;2022-09-23T02:05:18;34.66;33.50;37.91;;
68599;Laerm;18038;50.166;18.908;2022-09-23T02:08:33;37.04;33.34;49.19;;
68599;Laerm;18038;50.166;18.908;2022-09-23T02:11:46;36.89;33.61;46.83;;
68599;Laerm;18038;50.166;18.908;2022-09-23T02:15:02;35.97;33.38;49.96;;
68599;Laerm;18038;50.166;18.908;2022-09-23T02:18:17;34.50;33.39;35.89;;
68599;Laerm;18038;50.166;18.908;2022-09-23T02:21:47;36.61;33.46;46.88;;
68599;Laerm;18038;50.166;18.908;2022-09-23T02:24:56;34.62;33.56;36.49;;
68599;Laerm;18038;50.166;18.908;2022-09-23T02:28:13;35.43;33.30;50.69;;
68599;Laerm;18038;50.166;18.908;2022-09-23T02:31:34;35.76;33.46;45.41;;
68599;Laerm;18038;50.166;18.908;2022-09-23T02:34:53;35.14;33.50;44.36;;
68599;Laerm;18038;50.166;18.908;2022-09-23T02:38:21;36.07;33.40;45.85;;
68599;Laerm;18038;50.166;18.908;2022-09-23T02:41:35;36.54;33.45;48.08;;
68599;Laerm;18038;50.166;18.908;2022-09-23T02:44:45;35.89;33.45;48.19;;
68599;Laerm;18038;50.166;18.908;2022-09-23T02:48:03;36.00;33.73;47.64;;
68599;Laerm;18038;50.166;18.908;2022-09-23T02:51:12;36.65;33.57;47.28;;
68599;Laerm;18038;50.166;18.908;2022-09-23T02:54:26;36.37;33.62;47.19;;
68599;Laerm;18038;50.166;18.908;2022-09-23T02:57:34;36.26;33.65;46.05;;
68599;Laerm;18038;50.166;18.908;2022-09-23T03:00:55;36.95;33.51;45.78;;
68599;Laerm;18038;50.166;18.908;2022-09-23T03:04:18;36.73;33.53;47.22;;
68599;Laerm;18038;50.166;18.908;2022-09-23T03:07:42;37.20;33.23;47.29;;
68599;Laerm;18038;50.166;18.908;2022-09-23T03:11:04;38.92;33.94;53.81;;
68599;Laerm;18038;50.166;18.908;2022-09-23T03:14:27;38.73;33.96;49.44;;
68599;Laerm;18038;50.166;18.908;2022-09-23T03:17:45;39.57;34.06;50.66;;
68599;Laerm;18038;50.166;18.908;2022-09-23T03:20:59;37.22;33.65;47.77;;
68599;Laerm;18038;50.166;18.908;2022-09-23T03:24:11;39.39;33.90;55.00;;
68599;Laerm;18038;50.166;18.908;2022-09-23T03:27:27;39.74;34.13;51.69;;
68599;Laerm;18038;50.166;18.908;2022-09-23T03:30:36;38.60;33.99;49.58;;
68599;Laerm;18038;50.166;18.908;2022-09-23T03:33:49;39.17;34.41;47.32;;
68599;Laerm;18038;50.166;18.908;2022-09-23T03:37:03;39.43;34.21;50.19;;
68599;Laerm;18038;50.166;18.908;2022-09-23T03:40:20;38.15;34.11;46.70;;
68599;Laerm;18038;50.166;18.908;2022-09-23T03:43:31;39.24;34.07;50.95;;
68599;Laerm;18038;50.166;18.908;2022-09-23T03:46:40;38.77;34.96;48.65;;
68599;Laerm;18038;50.166;18.908;2022-09-23T03:49:52;38.66;34.09;49.73;;
68599;Laerm;18038;50.166;18.908;2022-09-23T03:52:58;38.60;34.06;49.91;;
68599;Laerm;18038;50.166;18.908;2022-09-23T03:56:05;38.70;34.05;49.42;;
68599;Laerm;18038;50.166;18.908;2022-09-23T03:59:17;39.43;34.06;48.80;;
68599;Laerm;18038;50.166;18.908;2022-09-23T04:02:24;41.70;34.04;57.71;;
68599;Laerm;18038;50.166;18.908;2022-09-23T04:05:30;41.00;34.19;62.93;;
68599;Laerm;18038;50.166;18.908;2022-09-23T04:08:36;39.17;34.23;47.27;;
68599;Laerm;18038;50.166;18.908;2022-09-23T04:11:42;38.48;34.23;47.24;;
68599;Laerm;18038;50.166;18.908;2022-09-23T04:14:50;40.72;35.19;49.64;;
68599;Laerm;18038;50.166;18.908;2022-09-23T04:17:57;38.05;33.75;46.09;;
68599;Laerm;18038;50.166;18.908;2022-09-23T04:21:03;39.22;34.06;48.98;;
68599;Laerm;18038;50.166;18.908;2022-09-23T04:24:11;38.84;34.24;46.34;;
68599;Laerm;18038;50.166;18.908;2022-09-23T04:27:18;41.54;34.47;59.57;;
68599;Laerm;18038;50.166;18.908;2022-09-23T04:30:27;38.99;34.20;49.95;;
68599;Laerm;18038;50.166;18.908;2022-09-23T04:33:36;41.47;33.94;51.32;;
68599;Laerm;18038;50.166;18.908;2022-09-23T04:36:48;40.47;34.51;57.39;;
68599;Laerm;18038;50.166;18.908;2022-09-23T04:39:54;40.05;34.00;51.17;;
68599;Laerm;18038;50.166;18.908;2022-09-23T04:43:00;41.15;34.35;51.59;;
68599;Laerm;18038;50.166;18.908;2022-09-23T04:46:12;40.45;34.69;48.15;;
68599;Laerm;18038;50.166;18.908;2022-09-23T04:49:21;40.20;33.94;47.64;;
68599;Laerm;18038;50.166;18.908;2022-09-23T04:52:30;41.73;34.34;51.10;;
68599;Laerm;18038;50.166;18.908;2022-09-23T04:55:36;40.04;34.47;49.71;;
68599;Laerm;18038;50.166;18.908;2022-09-23T04:58:44;41.25;35.13;49.87;;
68599;Laerm;18038;50.166;18.908;2022-09-23T05:01:54;40.18;34.77;56.87;;
68599;Laerm;18038;50.166;18.908;2022-09-23T05:05:10;41.96;34.24;55.77;;
68599;Laerm;18038;50.166;18.908;2022-09-23T05:08:23;39.82;34.47;49.55;;
68599;Laerm;18038;50.166;18.908;2022-09-23T05:11:34;39.93;34.49;50.26;;
68599;Laerm;18038;50.166;18.908;2022-09-23T05:14:47;40.66;34.33;54.50;;
68599;Laerm;18038;50.166;18.908;2022-09-23T05:17:59;40.24;34.50;51.64;;
68599;Laerm;18038;50.166;18.908;2022-09-23T05:21:05;40.77;34.48;47.34;;
68599;Laerm;18038;50.166;18.908;2022-09-23T05:24:20;42.00;35.53;50.84;;
68599;Laerm;18038;50.166;18.908;2022-09-23T05:27:27;45.09;36.58;51.63;;
68599;Laerm;18038;50.166;18.908;2022-09-23T05:30:33;43.12;36.08;50.85;;
68599;Laerm;18038;50.166;18.908;2022-09-23T05:33:45;43.01;36.21;50.63;;
68599;Laerm;18038;50.166;18.908;2022-09-23T05:36:51;39.99;34.56;47.45;;
68599;Laerm;18038;50.166;18.908;2022-09-23T05:39:57;41.49;34.60;49.70;;
68599;Laerm;18038;50.166;18.908;2022-09-23T05:43:03;46.70;37.56;55.98;;
68599;Laerm;18038;50.166;18.908;2022-09-23T05:46:13;47.32;38.04;54.68;;
68599;Laerm;18038;50.166;18.908;2022-09-23T05:49:22;43.02;36.55;48.55;;
68599;Laerm;18038;50.166;18.908;2022-09-23T05:52:48;47.57;36.40;57.38;;
68599;Laerm;18038;50.166;18.908;2022-09-23T05:55:54;46.99;38.01;58.42;;
68599;Laerm;18038;50.166;18.908;2022-09-23T05:59:03;45.93;35.57;64.14;;
68599;Laerm;18038;50.166;18.908;2022-09-23T06:02:09;46.01;36.73;56.73;;
68599;Laerm;18038;50.166;18.908;2022-09-23T06:05:19;46.81;37.84;56.41;;
68599;Laerm;18038;50.166;18.908;2022-09-23T06:08:25;41.69;36.53;48.02;;
68599;Laerm;18038;50.166;18.908;2022-09-23T06:11:34;51.67;37.02;59.22;;
68599;Laerm;18038;50.166;18.908;2022-09-23T06:14:40;49.57;44.04;61.92;;
68599;Laerm;18038;50.166;18.908;2022-09-23T06:17:48;46.91;39.75;53.19;;
68599;Laerm;18038;50.166;18.908;2022-09-23T06:21:00;49.60;40.14;59.63;;
68599;Laerm;18038;50.166;18.908;2022-09-23T06:24:18;49.03;39.64;55.25;;
68599;Laerm;18038;50.166;18.908;2022-09-23T06:27:32;47.76;40.66;54.80;;
68599;Laerm;18038;50.166;18.908;2022-09-23T06:30:38;47.09;42.14;56.52;;
68599;Laerm;18038;50.166;18.908;2022-09-23T06:33:45;50.94;40.15;62.26;;
68599;Laerm;18038;50.166;18.908;2022-09-23T06:36:55;48.65;40.17;54.40;;
68599;Laerm;18038;50.166;18.908;2022-09-23T06:40:10;50.99;44.27;57.78;;
68599;Laerm;18038;50.166;18.908;2022-09-23T06:43:18;45.97;38.32;55.33;;
68599;Laerm;18038;50.166;18.908;2022-09-23T06:46:25;51.55;39.41;60.83;;
68599;Laerm;18038;50.166;18.908;2022-09-23T06:49:32;51.80;47.01;58.10;;
68599;Laerm;18038;50.166;18.908;2022-09-23T06:52:50;51.07;41.48;59.67;;
68599;Laerm;18038;50.166;18.908;2022-09-23T06:56:03;50.11;40.57;59.69;;
68599;Laerm;18038;50.166;18.908;2022-09-23T06:59:10;47.09;39.47;54.96;;
68599;Laerm;18038;50.166;18.908;2022-09-23T07:02:21;50.48;42.15;59.73;;
68599;Laerm;18038;50.166;18.908;2022-09-23T07:05:27;47.48;42.23;56.85;;
68599;Laerm;18038;50.166;18.908;2022-09-23T07:08:40;49.47;39.94;57.50;;
68599;Laerm;18038;50.166;18.908;2022-09-23T07:11:47;47.92;37.79;59.01;;
68599;Laerm;18038;50.166;18.908;2022-09-23T07:14:53;45.23;39.04;52.32;;
68599;Laerm;18038;50.166;18.908;2022-09-23T07:17:59;45.78;40.05;51.06;;
68599;Laerm;18038;50.166;18.908;2022-09-23T07:21:09;43.15;36.35;50.72;;
68599;Laerm;18038;50.166;18.908;2022-09-23T07:24:20;40.21;35.09;47.05;;
68599;Laerm;18038;50.166;18.908;2022-09-23T07:27:27;42.74;35.57;52.32;;
68599;Laerm;18038;50.166;18.908;2022-09-23T07:30:41;40.72;34.98;47.51;;
68599;Laerm;18038;50.166;18.908;2022-09-23T07:34:06;41.06;35.79;48.87;;
68599;Laerm;18038;50.166;18.908;2022-09-23T07:37:17;40.41;35.29;48.58;;
68599;Laerm;18038;50.166;18.908;2022-09-23T07:40:26;39.16;35.11;47.75;;
68599;Laerm;18038;50.166;18.908;2022-09-23T07:43:41;40.69;33.86;49.68;;
68599;Laerm;18038;50.166;18.908;2022-09-23T07:46:48;39.95;34.00;47.17;;
68599;Laerm;18038;50.166;18.908;2022-09-23T07:49:54;37.81;33.28;46.12;;
68599;Laerm;18038;50.166;18.908;2022-09-23T07:53:00;38.73;33.59;48.06;;
68599;Laerm;18038;50.166;18.908;2022-09-23T07:56:13;39.65;33.59;46.71;;
68599;Laerm;18038;50.166;18.908;2022-09-23T07:59:21;40.05;33.74;49.49;;
68599;Laerm;18038;50.166;18.908;2022-09-23T08:02:29;41.14;33.51;50.01;;
68599;Laerm;18038;50.166;18.908;2022-09-23T08:05:35;44.70;33.71;67.83;;
68599;Laerm;18038;50.166;18.908;2022-09-23T08:08:41;41.34;34.10;50.91;;
68599;Laerm;18038;50.166;18.908;2022-09-23T08:11:57;38.97;33.46;50.09;;
68599;Laerm;18038;50.166;18.908;2022-09-23T08:15:05;38.91;33.63;49.65;;
68599;Laerm;18038;50.166;18.908;2022-09-23T08:18:11;38.66;33.66;49.29;;
68599;Laerm;18038;50.166;18.908;2022-09-23T08:21:20;39.92;33.70;49.91;;
68599;Laerm;18038;50.166;18.908;2022-09-23T08:24:27;40.60;33.68;51.94;;
68599;Laerm;18038;50.166;18.908;2022-09-23T08:27:36;39.37;34.06;47.94;;
68599;Laerm;18038;50.166;18.908;2022-09-23T08:30:47;39.38;35.03;48.78;;
68599;Laerm;18038;50.166;18.908;2022-09-23T08:33:56;41.91;35.27;54.79;;
68599;Laerm;18038;50.166;18.908;2022-09-23T08:37:09;40.31;34.54;53.88;;
68599;Laerm;18038;50.166;18.908;2022-09-23T08:40:17;39.99;34.84;54.60;;
68599;Laerm;18038;50.166;18.908;2022-09-23T08:43:34;39.89;34.79;52.80;;
68599;Laerm;18038;50.166;18.908;2022-09-23T08:46:48;39.38;34.42;49.99;;
68599;Laerm;18038;50.166;18.908;2022-09-23T08:50:06;39.48;34.20;48.22;;
68599;Laerm;18038;50.166;18.908;2022-09-23T08:53:25;38.77;33.60;60.97;;
68599;Laerm;18038;50.166;18.908;2022-09-23T08:56:34;38.35;33.50;53.67;;
68599;Laerm;18038;50.166;18.908;2022-09-23T08:59:45;40.73;33.67;55.86;;
68599;Laerm;18038;50.166;18.908;2022-09-23T09:02:54;38.96;33.48;47.40;;
68599;Laerm;18038;50.166;18.908;2022-09-23T09:06:02;38.59;33.46;49.00;;
68599;Laerm;18038;50.166;18.908;2022-09-23T09:09:22;39.28;34.16;48.17;;
68599;Laerm;18038;50.166;18.908;2022-09-23T09:12:39;39.65;33.59;48.85;;
68599;Laerm;18038;50.166;18.908;2022-09-23T09:16:10;39.07;33.76;51.58;;
68599;Laerm;18038;50.166;18.908;2022-09-23T09:19:54;39.53;33.81;51.40;;
68599;Laerm;18038;50.166;18.908;2022-09-23T09:23:20;38.96;33.74;45.30;;
68599;Laerm;18038;50.166;18.908;2022-09-23T09:26:29;37.87;33.59;46.90;;
68599;Laerm;18038;50.166;18.908;2022-09-23T09:29:42;37.88;33.32;46.44;;
68599;Laerm;18038;50.166;18.908;2022-09-23T09:33:01;39.41;33.36;48.72;;
68599;Laerm;18038;50.166;18.908;2022-09-23T09:36:25;38.98;33.63;48.66;;
68599;Laerm;18038;50.166;18.908;2022-09-23T09:39:35;40.08;33.82;56.51;;
68599;Laerm;18038;50.166;18.908;2022-09-23T09:42:46;39.65;33.73;62.28;;
68599;Laerm;18038;50.166;18.908;2022-09-23T09:46:15;39.67;33.64;48.06;;
68599;Laerm;18038;50.166;18.908;2022-09-23T09:49:43;38.47;33.96;51.57;;
68599;Laerm;18038;50.166;18.908;2022-09-23T09:53:20;39.16;33.78;45.89;;
68599;Laerm;18038;50.166;18.908;2022-09-23T09:56:33;38.41;33.67;48.13;;
68599;Laerm;18038;50.166;18.908;2022-09-23T09:59:42;38.51;33.56;50.58;;
68599;Laerm;18038;50.166;18.908;2022-09-23T10:02:53;41.70;33.67;48.90;;
68599;Laerm;18038;50.166;18.908;2022-09-23T10:06:15;41.70;33.88;48.35;;
68599;Laerm;18038;50.166;18.908;2022-09-23T10:09:34;39.07;33.61;46.84;;
68599;Laerm;18038;50.166;18.908;2022-09-23T10:12:52;39.14;33.72;47.92;;
68599;Laerm;18038;50.166;18.908;2022-09-23T10:16:02;38.14;33.38;47.53;;
68599;Laerm;18038;50.166;18.908;2022-09-23T10:19:23;39.72;33.49;50.96;;
68599;Laerm;18038;50.166;18.908;2022-09-23T10:22:38;38.57;33.47;48.52;;
68599;Laerm;18038;50.166;18.908;2022-09-23T10:25:59;39.51;33.48;53.97;;
68599;Laerm;18038;50.166;18.908;2022-09-23T10:29:23;40.20;33.78;53.04;;
68599;Laerm;18038;50.166;18.908;2022-09-23T10:32:32;37.99;33.48;44.96;;
68599;Laerm;18038;50.166;18.908;2022-09-23T10:35:52;39.82;33.59;51.95;;
68599;Laerm;18038;50.166;18.908;2022-09-23T10:39:04;39.86;33.54;52.60;;
68599;Laerm;18038;50.166;18.908;2022-09-23T10:42:50;40.36;33.44;52.76;;
68599;Laerm;18038;50.166;18.908;2022-09-23T10:46:18;40.07;33.49;52.36;;
68599;Laerm;18038;50.166;18.908;2022-09-23T10:50:13;39.24;33.47;48.10;;
68599;Laerm;18038;50.166;18.908;2022-09-23T10:53:51;42.40;34.23;54.24;;
68599;Laerm;18038;50.166;18.908;2022-09-23T10:57:22;38.72;33.74;47.70;;
68599;Laerm;18038;50.166;18.908;2022-09-23T11:00:57;38.17;33.16;47.99;;
68599;Laerm;18038;50.166;18.908;2022-09-23T11:04:59;39.90;33.62;50.78;;
68599;Laerm;18038;50.166;18.908;2022-09-23T11:12:24;40.31;33.74;52.30;;
68599;Laerm;18038;50.166;18.908;2022-09-23T11:15:49;39.71;33.51;47.10;;
68599;Laerm;18038;50.166;18.908;2022-09-23T11:19:29;38.16;33.52;46.54;;
68599;Laerm;18038;50.166;18.908;2022-09-23T11:23:34;39.75;33.72;51.67;;
68599;Laerm;18038;50.166;18.908;2022-09-23T11:26:59;42.87;33.68;53.94;;
68599;Laerm;18038;50.166;18.908;2022-09-23T11:30:17;39.73;33.72;45.95;;
68599;Laerm;18038;50.166;18.908;2022-09-23T11:33:51;39.26;33.38;53.02;;
68599;Laerm;18038;50.166;18.908;2022-09-23T11:37:19;39.45;33.70;50.12;;
68599;Laerm;18038;50.166;18.908;2022-09-23T11:40:31;43.52;34.11;52.89;;
68599;Laerm;18038;50.166;18.908;2022-09-23T11:43:52;47.56;36.12;58.46;;
68599;Laerm;18038;50.166;18.908;2022-09-23T11:47:13;40.27;34.06;48.35;;
68599;Laerm;18038;50.166;18.908;2022-09-23T11:50:35;43.17;33.35;69.80;;
68599;Laerm;18038;50.166;18.908;2022-09-23T11:53:50;39.81;33.93;59.28;;
68599;Laerm;18038;50.166;18.908;2022-09-23T11:57:07;40.03;33.78;52.63;;
68599;Laerm;18038;50.166;18.908;2022-09-23T12:00:19;46.35;33.51;67.90;;
68599;Laerm;18038;50.166;18.908;2022-09-23T12:03:43;39.61;33.28;50.24;;
68599;Laerm;18038;50.166;18.908;2022-09-23T12:07:03;40.04;33.84;49.30;;
68599;Laerm;18038;50.166;18.908;2022-09-23T12:10:16;39.68;34.57;48.29;;
68599;Laerm;18038;50.166;18.908;2022-09-23T12:13:38;40.45;34.41;50.88;;
68599;Laerm;18038;50.166;18.908;2022-09-23T12:17:14;41.33;33.46;53.09;;
68599;Laerm;18038;50.166;18.908;2022-09-23T12:21:01;41.06;33.30;62.26;;
68599;Laerm;18038;50.166;18.908;2022-09-23T12:24:53;39.09;33.65;46.93;;
68599;Laerm;18038;50.166;18.908;2022-09-23T12:28:05;40.88;34.10;55.26;;
68599;Laerm;18038;50.166;18.908;2022-09-23T12:31:19;38.48;33.33;48.37;;
68599;Laerm;18038;50.166;18.908;2022-09-23T12:34:40;39.31;33.40;48.15;;
68599;Laerm;18038;50.166;18.908;2022-09-23T12:37:54;40.10;33.44;53.92;;
68599;Laerm;18038;50.166;18.908;2022-09-23T12:41:00;41.10;34.74;54.11;;
68599;Laerm;18038;50.166;18.908;2022-09-23T12:44:29;40.99;34.00;54.79;;
68599;Laerm;18038;50.166;18.908;2022-09-23T12:47:39;39.55;33.60;47.05;;
68599;Laerm;18038;50.166;18.908;2022-09-23T12:50:51;40.91;33.77;52.76;;
68599;Laerm;18038;50.166;18.908;2022-09-23T12:54:24;39.94;33.97;49.58;;
68599;Laerm;18038;50.166;18.908;2022-09-23T12:57:48;41.45;33.62;59.08;;
68599;Laerm;18038;50.166;18.908;2022-09-23T13:01:06;41.08;33.49;50.01;;
68599;Laerm;18038;50.166;18.908;2022-09-23T13:04:41;42.29;35.02;51.03;;
68599;Laerm;18038;50.166;18.908;2022-09-23T13:08:07;40.77;33.38;48.47;;
68599;Laerm;18038;50.166;18.908;2022-09-23T13:11:25;39.74;33.68;53.40;;
68599;Laerm;18038;50.166;18.908;2022-09-23T13:14:34;39.97;33.88;50.71;;
68599;Laerm;18038;50.166;18.908;2022-09-23T13:17:41;39.27;33.97;46.26;;
68599;Laerm;18038;50.166;18.908;2022-09-23T13:20:48;38.71;33.54;48.36;;
68599;Laerm;18038;50.166;18.908;2022-09-23T13:24:17;40.79;33.96;53.14;;
68599;Laerm;18038;50.166;18.908;2022-09-23T13:27:33;45.36;33.71;67.64;;
68599;Laerm;18038;50.166;18.908;2022-09-23T13:30:48;41.07;33.84;51.62;;
68599;Laerm;18038;50.166;18.908;2022-09-23T13:34:04;40.58;34.01;51.42;;
68599;Laerm;18038;50.166;18.908;2022-09-23T13:37:20;40.35;34.37;51.60;;
68599;Laerm;18038;50.166;18.908;2022-09-23T13:40:28;41.04;34.00;55.13;;
68599;Laerm;18038;50.166;18.908;2022-09-23T13:43:43;39.39;33.25;48.64;;
68599;Laerm;18038;50.166;18.908;2022-09-23T13:46:54;39.77;33.81;48.03;;
68599;Laerm;18038;50.166;18.908;2022-09-23T13:50:04;38.35;33.35;46.99;;
68599;Laerm;18038;50.166;18.908;2022-09-23T13:53:22;39.49;33.53;51.28;;
68599;Laerm;18038;50.166;18.908;2022-09-23T13:56:31;39.67;33.64;47.80;;
68599;Laerm;18038;50.166;18.908;2022-09-23T13:59:43;40.18;34.31;52.89;;
68599;Laerm;18038;50.166;18.908;2022-09-23T14:02:49;40.56;34.06;53.96;;
68599;Laerm;18038;50.166;18.908;2022-09-23T14:05:56;40.41;33.85;49.99;;
68599;Laerm;18038;50.166;18.908;2022-09-23T14:09:05;40.65;33.71;50.93;;
68599;Laerm;18038;50.166;18.908;2022-09-23T14:12:12;39.38;33.48;54.22;;
68599;Laerm;18038;50.166;18.908;2022-09-23T14:15:26;39.84;34.04;50.11;;
68599;Laerm;18038;50.166;18.908;2022-09-23T14:18:38;38.94;33.45;49.85;;
68599;Laerm;18038;50.166;18.908;2022-09-23T14:21:49;39.78;34.33;55.62;;
68599;Laerm;18038;50.166;18.908;2022-09-23T14:24:57;39.16;33.30;47.22;;
68599;Laerm;18038;50.166;18.908;2022-09-23T14:28:05;40.62;34.17;48.49;;
68599;Laerm;18038;50.166;18.908;2022-09-23T14:31:14;40.16;33.74;48.41;;
68599;Laerm;18038;50.166;18.908;2022-09-23T14:34:44;40.42;33.10;57.05;;
68599;Laerm;18038;50.166;18.908;2022-09-23T14:37:54;40.30;33.94;59.56;;
68599;Laerm;18038;50.166;18.908;2022-09-23T14:41:21;40.40;33.82;52.25;;
68599;Laerm;18038;50.166;18.908;2022-09-23T14:44:28;39.66;33.74;57.74;;
68599;Laerm;18038;50.166;18.908;2022-09-23T14:47:46;41.56;33.58;64.36;;
68599;Laerm;18038;50.166;18.908;2022-09-23T14:50:57;38.72;33.67;52.19;;
68599;Laerm;18038;50.166;18.908;2022-09-23T14:57:47;39.73;33.82;50.19;;
68599;Laerm;18038;50.166;18.908;2022-09-23T15:00:55;39.00;33.73;49.39;;
68599;Laerm;18038;50.166;18.908;2022-09-23T15:04:25;39.31;34.12;52.09;;
68599;Laerm;18038;50.166;18.908;2022-09-23T15:07:36;39.51;33.86;52.96;;
68599;Laerm;18038;50.166;18.908;2022-09-23T15:10:44;39.13;33.45;50.51;;
68599;Laerm;18038;50.166;18.908;2022-09-23T15:13:52;39.46;33.65;51.42;;
68599;Laerm;18038;50.166;18.908;2022-09-23T15:17:29;39.03;33.75;48.75;;
68599;Laerm;18038;50.166;18.908;2022-09-23T15:20:49;41.73;33.93;62.93;;
68599;Laerm;18038;50.166;18.908;2022-09-23T15:23:56;42.68;33.53;59.93;;
68599;Laerm;18038;50.166;18.908;2022-09-23T15:27:18;39.99;33.94;54.33;;
68599;Laerm;18038;50.166;18.908;2022-09-23T15:30:29;38.06;33.69;47.29;;
68599;Laerm;18038;50.166;18.908;2022-09-23T15:33:38;38.61;33.91;50.79;;
68599;Laerm;18038;50.166;18.908;2022-09-23T15:36:47;39.10;33.84;48.14;;
68599;Laerm;18038;50.166;18.908;2022-09-23T15:39:53;39.90;33.82;49.66;;
68599;Laerm;18038;50.166;18.908;2022-09-23T15:43:09;41.33;33.33;50.18;;
68599;Laerm;18038;50.166;18.908;2022-09-23T15:46:26;41.20;33.67;50.92;;
68599;Laerm;18038;50.166;18.908;2022-09-23T15:49:38;38.81;33.14;47.85;;
68599;Laerm;18038;50.166;18.908;2022-09-23T15:52:46;39.09;33.56;49.94;;
68599;Laerm;18038;50.166;18.908;2022-09-23T15:55:55;37.59;33.30;48.13;;
68599;Laerm;18038;50.166;18.908;2022-09-23T15:59:05;38.31;33.69;49.26;;
68599;Laerm;18038;50.166;18.908;2022-09-23T16:02:22;37.98;33.11;45.35;;
68599;Laerm;18038;50.166;18.908;2022-09-23T16:05:33;38.95;33.53;49.62;;
68599;Laerm;18038;50.166;18.908;2022-09-23T16:08:49;38.09;33.80;47.39;;
68599;Laerm;18038;50.166;18.908;2022-09-23T16:11:56;39.32;33.54;46.40;;
68599;Laerm;18038;50.166;18.908;2022-09-23T16:15:15;38.64;33.49;47.56;;
68599;Laerm;18038;50.166;18.908;2022-09-23T16:18:21;38.53;33.29;49.90;;
68599;Laerm;18038;50.166;18.908;2022-09-23T16:21:33;38.42;33.80;46.34;;
68599;Laerm;18038;50.166;18.908;2022-09-23T16:24:45;38.54;34.19;48.64;;
68599;Laerm;18038;50.166;18.908;2022-09-23T16:27:51;39.12;34.06;47.29;;
68599;Laerm;18038;50.166;18.908;2022-09-23T16:30:57;38.23;34.43;50.69;;
68599;Laerm;18038;50.166;18.908;2022-09-23T16:34:04;38.13;34.38;48.96;;
68599;Laerm;18038;50.166;18.908;2022-09-23T16:37:13;37.98;34.16;45.59;;
68599;Laerm;18038;50.166;18.908;2022-09-23T16:40:24;38.53;34.17;52.29;;
68599;Laerm;18038;50.166;18.908;2022-09-23T16:43:30;38.74;34.25;54.11;;
68599;Laerm;18038;50.166;18.908;2022-09-23T16:46:41;40.00;34.55;54.56;;
68599;Laerm;18038;50.166;18.908;2022-09-23T16:49:47;39.08;34.20;46.09;;
68599;Laerm;18038;50.166;18.908;2022-09-23T16:52:56;38.16;34.32;44.19;;
68599;Laerm;18038;50.166;18.908;2022-09-23T16:56:10;37.54;34.45;48.31;;
68599;Laerm;18038;50.166;18.908;2022-09-23T16:59:17;39.01;34.55;49.17;;
68599;Laerm;18038;50.166;18.908;2022-09-23T17:02:23;38.06;33.92;47.68;;
68599;Laerm;18038;50.166;18.908;2022-09-23T17:05:44;38.38;34.38;49.29;;
68599;Laerm;18038;50.166;18.908;2022-09-23T17:08:51;38.05;34.34;47.33;;
68599;Laerm;18038;50.166;18.908;2022-09-23T17:12:14;38.69;33.90;46.83;;
68599;Laerm;18038;50.166;18.908;2022-09-23T17:15:25;38.74;34.16;49.68;;
68599;Laerm;18038;50.166;18.908;2022-09-23T17:18:31;37.54;34.29;45.98;;
68599;Laerm;18038;50.166;18.908;2022-09-23T17:21:41;38.44;34.19;48.91;;
68599;Laerm;18038;50.166;18.908;2022-09-23T17:24:47;37.46;34.03;49.88;;
68599;Laerm;18038;50.166;18.908;2022-09-23T17:27:59;39.26;34.18;51.97;;
68599;Laerm;18038;50.166;18.908;2022-09-23T17:31:06;37.82;34.06;45.76;;
68599;Laerm;18038;50.166;18.908;2022-09-23T17:34:14;38.57;34.23;49.30;;
68599;Laerm;18038;50.166;18.908;2022-09-23T17:37:21;38.17;34.11;46.22;;
68599;Laerm;18038;50.166;18.908;2022-09-23T17:40:27;37.70;34.24;46.25;;
68599;Laerm;18038;50.166;18.908;2022-09-23T17:43:42;37.88;33.79;45.55;;
68599;Laerm;18038;50.166;18.908;2022-09-23T17:46:50;39.01;34.22;50.74;;
68599;Laerm;18038;50.166;18.908;2022-09-23T17:50:06;41.02;34.09;58.05;;
68599;Laerm;18038;50.166;18.908;2022-09-23T17:53:12;38.38;34.00;55.90;;
68599;Laerm;18038;50.166;18.908;2022-09-23T17:56:22;37.74;33.93;49.55;;
68599;Laerm;18038;50.166;18.908;2022-09-23T17:59:37;37.83;34.06;44.79;;